Ekwok, AK (99580)

8:52 AM AKDT on August 22, 2014 (GMT -0800)
New Stuyahok AP, New Stuyahok | Change Station
CLOSE
Current Station
Airport
Location: New Stuyahok AP, New Stuyahok,
Elevation: 302 ft
Nearby Weather Stations

Elev 302 ft 59.45 °N, 157.33 °W | Updated 15 minutes ago

Overcast
Overcast
52 °F
Feels Like 52 °F
N
0
Wind Variable Wind from North

Today
High -- | Low -- °F
--% Chance of Precip.
Yesterday
High -- | Low -- °F
Precip. -- in
7:04 AM 10:00 PM
Waning Crescent, 7% visible
Pressure 30.21 in
Visibility 2.5 miles
Clouds Scattered Clouds 8000 ft
Overcast 10000 ft
Dew Point 52 °F
Humidity 100%
Rainfall 0.00 in
Snow Depth Not available.
UV 0 out of 12
Pollen Not available.
Air Quality Not available.
Flu Activity Not available.
SPECI PANW 221637Z AUTO 00000KT 2 1/2SM BR SCT080 OVC100 11/11 A3021 RMK AO2 TSNO OVC V BKN $

More Conditions Fewer Conditions

Pressure 30.21 in
Visibility 2.5 miles
Clouds Scattered Clouds 8000 ft
Overcast 10000 ft
Dew Point 52 °F
Humidity 100%
Rainfall 0.00 in
Snow Depth Not available.
UV 0 out of 12
Pollen Not available.
Air Quality Not available.
Flu Activity Not available.
SPECI PANW 221637Z AUTO 00000KT 2 1/2SM BR SCT080 OVC100 11/11 A3021 RMK AO2 TSNO OVC V BKN $

More Conditions Fewer Conditions

10-Day Weather Forecast

Almanac

Astronomy

Aug. 22, 2014 Rise Set
Actual Time 7:04 AM AKDT 10:00 PM AKDT
Civil Twilight 6:17 AM AKDT 10:46 PM AKDT
Nautical Twilight 5:13 AM AKDT 11:50 PM AKDT
Astronomical Twilight 3:29 AM AKDT 1:27 AM AKDT
Moon 4:19 AM AKDT 8:26 PM AKDT
Length of Visible Light 16h 29m
Length of Day
14h 55m
Tomorrow will be 5m 10s shorter.
Waning Crescent, 7% of the Moon is Illuminated
Today
Waning Crescent
Aug 25
New
Sep 2
First Quarter
Sep 8
Full
Sep 15
Last Quarter

Today's Extremes

State Highs State Lows

Community

WunderPhotos

Upload Photos

1,746,197 photos uploaded!

Nearby

Snow Depth

Station Depth Elevation
Port Graham 0 in 300 ft
Mcneil Canyon 1 in 1320 ft
MF Bradley River 3 in 2300 ft
Nuka Glacier 164 in 1250 ft
Cooper Lake 22 in 1200 ft

Earthquake Activity

City Distance Mag. Time & Date
No recent earthquake activity has been reported nearby.
Minimum magnitude displayed is 2.5.

Coastal Water Temperatures

Place Temperature
No Stations Reporting

Nearby Weather Stations